createdAt,value
2023-02-11T00:00:20.198Z,103330.19
2023-02-11T00:02:48.027Z,103315.41
2023-02-11T00:05:15.037Z,103332.03
2023-02-11T00:07:41.804Z,103325.78
2023-02-11T00:10:09.055Z,103329.13
2023-02-11T00:12:36.836Z,103337.13
2023-02-11T00:15:04.170Z,103336.22
2023-02-11T00:17:31.741Z,103334.63
2023-02-11T00:19:58.089Z,103331.13
2023-02-11T00:22:24.493Z,103320.63
2023-02-11T00:24:50.835Z,103325.03
2023-02-11T00:27:17.267Z,103318.75
2023-02-11T00:29:43.685Z,103312.69
2023-02-11T00:32:10.794Z,103319.78
2023-02-11T00:34:38.038Z,103320.69
2023-02-11T00:37:05.477Z,103323.31
2023-02-11T00:39:31.960Z,103326.06
2023-02-11T00:41:58.894Z,103322.44
2023-02-11T00:44:25.335Z,103332.06
2023-02-11T00:46:51.683Z,103335.47
2023-02-11T00:49:18.046Z,103338.03
2023-02-11T00:51:44.477Z,103343.97
2023-02-11T00:54:10.961Z,103342.16
2023-02-11T00:56:37.444Z,103348.22
2023-02-11T00:59:03.827Z,103338.81
2023-02-11T01:01:30.335Z,103342.34
2023-02-11T01:03:56.763Z,103333.72
2023-02-11T01:06:23.264Z,103339.22
2023-02-11T01:08:49.639Z,103337.47
2023-02-11T01:11:19.111Z,103320.09
2023-02-11T01:13:46.626Z,103315.78
2023-02-11T01:16:13.626Z,103315.78
2023-02-11T01:18:41.927Z,103313.16
2023-02-11T01:21:08.480Z,103301.81
2023-02-11T01:23:34.872Z,103285.63
2023-02-11T01:26:01.353Z,103301.06
2023-02-11T01:28:30.415Z,103301.22
2023-02-11T01:30:57.112Z,103291.72
2023-02-11T01:33:24.458Z,103286.47
2023-02-11T01:35:51.492Z,103289.19
2023-02-11T01:38:23.672Z,103283.91
2023-02-11T01:40:52.390Z,103298.56
2023-02-11T01:43:19.103Z,103293.38
2023-02-11T01:45:46.895Z,103285.72
2023-02-11T01:48:18.017Z,103295.06
2023-02-11T01:50:46.367Z,103314.84
2023-02-11T01:53:31.931Z,103327.00
2023-02-11T01:56:17.849Z,103325.13
2023-02-11T01:58:47.130Z,103325.13
2023-02-11T02:01:17.691Z,103313.03
2023-02-11T02:03:48.616Z,103306.88
2023-02-11T02:06:31.525Z,103320.91
2023-02-11T02:09:09.269Z,103319.91
2023-02-11T02:11:36.319Z,103317.41
2023-02-11T02:14:03.258Z,103321.09
2023-02-11T02:16:36.344Z,103321.94
2023-02-11T02:19:11.860Z,103309.69
2023-02-11T02:21:52.571Z,103299.34
2023-02-11T02:24:38.642Z,103294.78
2023-02-11T02:27:15.911Z,103291.44
2023-02-11T02:30:07.126Z,103287.09
2023-02-11T02:32:51.932Z,103284.59
2023-02-11T02:35:39.804Z,103280.91
2023-02-11T02:38:23.198Z,103279.28
2023-02-11T02:40:54.922Z,103279.50
2023-02-11T02:43:23.598Z,103279.66
2023-02-11T02:45:50.095Z,103280.47
2023-02-11T02:48:26.057Z,103273.66
2023-02-11T02:51:13.459Z,103264.94
2023-02-11T02:54:09.342Z,103272.69
2023-02-11T02:57:03.768Z,103264.88
2023-02-11T03:00:18.269Z,103273.66
2023-02-11T03:03:26.783Z,103263.13
2023-02-11T03:06:22.037Z,103269.28
2023-02-11T03:08:59.652Z,103272.91
2023-02-11T03:11:27.675Z,103269.47
2023-02-11T03:13:54.865Z,103271.19
2023-02-11T03:16:26.822Z,103263.41
2023-02-11T03:19:01.319Z,103270.25
2023-02-11T03:21:31.653Z,103265.28
2023-02-11T03:24:03.117Z,103265.25
2023-02-11T03:26:36.971Z,103259.28
2023-02-11T03:29:21.236Z,103259.34
2023-02-11T03:32:00.364Z,103260.88
2023-02-11T03:34:47.961Z,103252.16
2023-02-11T03:37:33.196Z,103252.16
2023-02-11T03:40:02.511Z,103260.81
2023-02-11T03:42:38.161Z,103247.00
2023-02-11T03:45:12.348Z,103239.28
2023-02-11T03:47:41.521Z,103243.84
2023-02-11T03:50:10.672Z,103241.28
2023-02-11T03:52:38.486Z,103242.81
2023-02-11T03:55:13.103Z,103241.88
2023-02-11T03:57:39.881Z,103246.53
2023-02-11T04:00:08.456Z,103248.91
2023-02-11T04:02:37.678Z,103241.16
2023-02-11T04:05:06.681Z,103254.31
2023-02-11T04:07:33.801Z,103264.44
2023-02-11T04:10:00.275Z,103262.59
2023-02-11T04:12:26.842Z,103261.56
2023-02-11T04:14:53.212Z,103269.47
2023-02-11T04:17:19.712Z,103274.63
2023-02-11T04:19:46.150Z,103286.81
2023-02-11T04:22:12.831Z,103290.28
2023-02-11T04:24:39.364Z,103284.00
2023-02-11T04:27:05.838Z,103278.81
2023-02-11T04:29:32.338Z,103270.25
2023-02-11T04:31:58.819Z,103265.00
2023-02-11T04:34:25.299Z,103268.44
2023-02-11T04:36:51.720Z,103272.88
2023-02-11T04:39:18.651Z,103259.00
2023-02-11T04:41:45.212Z,103272.78
2023-02-11T04:44:11.569Z,103272.69
2023-02-11T04:46:37.964Z,103273.38
2023-02-11T04:49:04.486Z,103277.69
2023-02-11T04:51:30.910Z,103271.56
2023-02-11T04:53:57.307Z,103268.16
2023-02-11T04:56:23.771Z,103280.22
2023-02-11T04:58:50.145Z,103272.63
2023-02-11T05:01:17.028Z,103268.34
2023-02-11T05:03:43.681Z,103267.41
2023-02-11T05:06:11.414Z,103273.38
2023-02-11T05:08:37.984Z,103265.66
2023-02-11T05:11:04.579Z,103267.56
2023-02-11T05:13:31.582Z,103261.38
2023-02-11T05:15:57.971Z,103265.66
2023-02-11T05:18:24.574Z,103260.44
2023-02-11T05:20:51.168Z,103267.38
2023-02-11T05:23:17.681Z,103268.84
2023-02-11T05:25:44.074Z,103276.78
2023-02-11T05:28:10.513Z,103271.56
2023-02-11T05:30:36.915Z,103284.53
2023-02-11T05:33:03.581Z,103277.69
2023-02-11T05:35:30.262Z,103272.28
2023-02-11T05:37:56.807Z,103272.41
2023-02-11T05:40:23.297Z,103279.31
2023-02-11T05:42:49.681Z,103275.25
2023-02-11T05:45:16.113Z,103275.13
2023-02-11T05:47:42.546Z,103278.59
2023-02-11T05:50:09.129Z,103291.56
2023-02-11T05:52:35.687Z,103276.03
2023-02-11T05:55:03.121Z,103275.88
2023-02-11T05:57:29.703Z,103281.75
2023-02-11T05:59:56.045Z,103293.19
2023-02-11T06:02:23.147Z,103283.63
2023-02-11T06:04:49.576Z,103287.94
2023-02-11T06:07:17.309Z,103291.38
2023-02-11T06:09:43.901Z,103283.56
2023-02-11T06:12:10.312Z,103293.16
2023-02-11T06:14:36.983Z,103291.28
2023-02-11T06:17:03.789Z,103289.31
2023-02-11T06:19:31.156Z,103284.34
2023-02-11T06:21:58.010Z,103280.00
2023-02-11T06:24:47.867Z,103277.47
2023-02-11T06:27:11.028Z,103274.66
2023-02-11T06:29:37.531Z,103277.41
2023-02-11T06:32:04.330Z,103280.16
2023-02-11T06:34:30.935Z,103282.72
2023-02-11T06:36:57.485Z,103277.63
2023-02-11T06:39:23.840Z,103278.34
2023-02-11T06:41:50.267Z,103282.66
2023-02-11T06:44:17.054Z,103291.38
2023-02-11T06:46:43.418Z,103292.13
2023-02-11T06:49:09.930Z,103281.97
2023-02-11T06:51:36.710Z,103292.47
2023-02-11T06:54:05.430Z,103288.00
2023-02-11T06:56:32.192Z,103297.53
2023-02-11T06:58:59.097Z,103294.22
2023-02-11T07:01:27.257Z,103299.38
2023-02-11T07:03:54.326Z,103297.44
2023-02-11T07:06:24.803Z,103297.38
2023-02-11T07:08:51.423Z,103294.91
2023-02-11T07:11:21.147Z,103295.00
2023-02-11T07:13:48.252Z,103298.38
2023-02-11T07:16:16.450Z,103302.88
2023-02-11T07:18:43.395Z,103303.63
2023-02-11T07:21:12.679Z,103312.09
2023-02-11T07:23:40.768Z,103312.00
2023-02-11T07:26:09.386Z,103317.22
2023-02-11T07:28:37.715Z,103310.59
2023-02-11T07:31:12.891Z,103318.19
2023-02-11T07:33:40.244Z,103317.50
2023-02-11T07:36:08.329Z,103318.25
2023-02-11T07:38:36.255Z,103324.19
2023-02-11T07:41:04.710Z,103324.09
2023-02-11T07:43:31.713Z,103322.50
2023-02-11T07:45:58.389Z,103326.81
2023-02-11T07:48:24.947Z,103320.91
2023-02-11T07:50:51.365Z,103323.63
2023-02-11T07:53:17.757Z,103325.97
2023-02-11T07:55:44.199Z,103320.84
2023-02-11T07:58:10.789Z,103319.91
2023-02-11T08:00:37.248Z,103328.84
2023-02-11T08:03:04.004Z,103328.84
2023-02-11T08:05:30.509Z,103332.06
2023-02-11T08:07:56.915Z,103332.75
2023-02-11T08:10:23.337Z,103333.59
2023-02-11T08:12:49.704Z,103325.72
2023-02-11T08:15:16.264Z,103325.78
2023-02-11T08:17:42.706Z,103329.22
2023-02-11T08:20:09.517Z,103321.31
2023-02-11T08:22:35.891Z,103323.13
2023-02-11T08:25:02.416Z,103320.22
2023-02-11T08:27:29.015Z,103326.28
2023-02-11T08:29:55.924Z,103327.13
2023-02-11T08:32:25.407Z,103325.38
2023-02-11T08:34:52.705Z,103321.00
2023-02-11T08:37:19.960Z,103333.94
2023-02-11T08:39:47.354Z,103332.13
2023-02-11T08:42:15.601Z,103339.97
2023-02-11T08:44:43.642Z,103332.00
2023-02-11T08:47:10.179Z,103339.72
2023-02-11T08:49:36.628Z,103346.66
2023-02-11T08:52:04.129Z,103350.25
2023-02-11T08:54:31.333Z,103346.47
2023-02-11T08:56:57.904Z,103363.84
2023-02-11T08:59:24.285Z,103359.19
2023-02-11T09:01:50.819Z,103362.59
2023-02-11T09:04:17.332Z,103356.47
2023-02-11T09:06:43.995Z,103366.66
2023-02-11T09:09:13.559Z,103369.25
2023-02-11T09:11:41.399Z,103370.09
2023-02-11T09:14:08.389Z,103363.88
2023-02-11T09:16:36.529Z,103361.03
2023-02-11T09:19:05.524Z,103372.25
2023-02-11T09:21:32.189Z,103369.50
2023-02-11T09:23:58.852Z,103376.38
2023-02-11T09:26:28.839Z,103391.97
2023-02-11T09:28:55.595Z,103376.19
2023-02-11T09:31:24.542Z,103384.69
2023-02-11T09:33:53.942Z,103385.19
2023-02-11T09:36:25.844Z,103389.63
2023-02-11T09:38:53.281Z,103393.72
2023-02-11T09:41:22.758Z,103391.97
2023-02-11T09:43:52.757Z,103387.59
2023-02-11T09:46:21.504Z,103392.88
2023-02-11T09:48:51.665Z,103393.66
2023-02-11T09:51:38.338Z,103399.50
2023-02-11T09:54:16.916Z,103406.34
2023-02-11T09:56:43.208Z,103407.66
2023-02-11T09:59:17.491Z,103403.19
2023-02-11T10:01:47.994Z,103412.06
2023-02-11T10:04:39.190Z,103416.22
2023-02-11T10:07:25.508Z,103418.75
2023-02-11T10:10:11.801Z,103425.53
2023-02-11T10:12:58.167Z,103425.44
2023-02-11T10:15:53.946Z,103432.13
2023-02-11T10:18:45.438Z,103437.03
2023-02-11T10:21:17.569Z,103435.09
2023-02-11T10:23:49.272Z,103452.66
2023-02-11T10:26:18.588Z,103445.53
2023-02-11T10:28:52.709Z,103456.69
2023-02-11T10:31:34.168Z,103457.56
2023-02-11T10:34:04.674Z,103454.75
2023-02-11T10:36:35.221Z,103457.09
2023-02-11T10:39:32.460Z,103466.50
2023-02-11T10:42:07.505Z,103456.56
2023-02-11T10:44:38.448Z,103461.56
2023-02-11T10:47:28.296Z,103459.63
2023-02-11T10:50:03.249Z,103463.06
2023-02-11T10:52:30.802Z,103461.22
2023-02-11T10:54:58.955Z,103462.84
2023-02-11T10:57:35.521Z,103466.97
2023-02-11T11:00:39.119Z,103477.28
2023-02-11T11:03:18.390Z,103473.72
2023-02-11T11:05:51.940Z,103473.81
2023-02-11T11:08:19.748Z,103473.47
2023-02-11T11:11:03.780Z,103476.03
2023-02-11T11:13:34.313Z,103472.06
2023-02-11T11:16:09.046Z,103474.47
2023-02-11T11:18:35.925Z,103476.88
2023-02-11T11:21:07.269Z,103477.59
2023-02-11T11:23:36.960Z,103474.34
2023-02-11T11:26:07.870Z,103479.16
2023-02-11T11:28:42.381Z,103473.72
2023-02-11T11:31:18.920Z,103465.59
2023-02-11T11:33:47.262Z,103473.50
2023-02-11T11:36:19.789Z,103474.22
2023-02-11T11:38:52.400Z,103481.63
2023-02-11T11:41:23.431Z,103472.25
2023-02-11T11:44:02.178Z,103469.28
2023-02-11T11:46:32.173Z,103462.97
2023-02-11T11:49:07.896Z,103462.88
2023-02-11T11:51:37.723Z,103460.44
2023-02-11T11:54:08.798Z,103453.28
2023-02-11T11:56:41.764Z,103440.44
2023-02-11T11:59:17.041Z,103445.78
2023-02-11T12:02:11.814Z,103454.13
2023-02-11T12:04:54.757Z,103455.00
2023-02-11T12:07:53.740Z,103451.06
2023-02-11T12:10:36.052Z,103443.84
2023-02-11T12:13:22.398Z,103436.50
2023-02-11T12:16:36.301Z,103437.91
2023-02-11T12:19:39.697Z,103431.59
2023-02-11T12:22:33.318Z,103428.53
2023-02-11T12:25:31.803Z,103430.81
2023-02-11T12:28:33.390Z,103429.88
2023-02-11T12:31:02.359Z,103429.03
2023-02-11T12:33:40.370Z,103427.56
2023-02-11T12:36:41.238Z,103426.16
2023-02-11T12:39:49.705Z,103423.53
2023-02-11T12:43:05.400Z,103430.94
2023-02-11T12:45:42.122Z,103425.22
2023-02-11T12:48:29.752Z,103440.81
2023-02-11T12:51:14.908Z,103434.06
2023-02-11T12:54:14.909Z,103431.38
2023-02-11T12:56:41.389Z,103430.28
2023-02-11T12:59:20.675Z,103441.47
2023-02-11T13:01:50.375Z,103427.41
2023-02-11T13:04:33.261Z,103438.91
2023-02-11T13:07:06.340Z,103423.84
2023-02-11T13:09:41.941Z,103423.91
2023-02-11T13:12:31.277Z,103425.03
2023-02-11T13:15:03.192Z,103432.00
2023-02-11T13:17:37.652Z,103426.47
2023-02-11T13:20:18.385Z,103426.41
2023-02-11T13:23:15.467Z,103421.47
2023-02-11T13:26:10.575Z,103425.19
2023-02-11T13:28:53.983Z,103424.09
2023-02-11T13:31:20.613Z,103413.00
2023-02-11T13:33:49.716Z,103406.97
2023-02-11T13:36:27.939Z,103401.13
2023-02-11T13:39:00.369Z,103408.69
2023-02-11T13:41:30.906Z,103412.78
2023-02-11T13:44:00.595Z,103418.31
2023-02-11T13:46:48.821Z,103418.16
2023-02-11T13:49:20.957Z,103418.50
2023-02-11T13:51:48.121Z,103417.81
2023-02-11T13:54:32.143Z,103413.41
2023-02-11T13:57:20.228Z,103417.81
2023-02-11T13:59:58.900Z,103428.72
2023-02-11T14:02:54.082Z,103420.97
2023-02-11T14:05:48.269Z,103413.72
2023-02-11T14:08:39.099Z,103411.25
2023-02-11T14:11:28.375Z,103414.28
2023-02-11T14:13:54.834Z,103417.19
2023-02-11T14:16:36.905Z,103420.44
2023-02-11T14:19:04.276Z,103420.44
2023-02-11T14:21:41.247Z,103422.22
2023-02-11T14:24:12.894Z,103422.91
2023-02-11T14:26:57.843Z,103422.44
2023-02-11T14:29:33.481Z,103418.44
2023-02-11T14:32:17.587Z,103420.50
2023-02-11T14:35:08.243Z,103432.09
2023-02-11T14:37:50.380Z,103426.00
2023-02-11T14:40:31.761Z,103430.31
2023-02-11T14:43:06.209Z,103428.63
2023-02-11T14:45:35.454Z,103435.84
2023-02-11T14:48:12.252Z,103435.78
2023-02-11T14:50:46.078Z,103437.19
2023-02-11T14:53:19.475Z,103425.59
2023-02-11T14:55:52.468Z,103416.28
2023-02-11T14:58:26.236Z,103425.69
2023-02-11T15:01:00.407Z,103427.00
2023-02-11T15:03:35.142Z,103434.00
2023-02-11T15:06:12.957Z,103430.59
2023-02-11T15:08:44.513Z,103428.56
2023-02-11T15:11:15.600Z,103430.53
2023-02-11T15:13:49.731Z,103437.63
2023-02-11T15:16:20.726Z,103446.06
2023-02-11T15:18:51.757Z,103446.53
2023-02-11T15:21:27.508Z,103451.66
2023-02-11T15:24:16.709Z,103455.84
2023-02-11T15:26:43.146Z,103454.16
2023-02-11T15:29:18.913Z,103464.28
2023-02-11T15:31:45.510Z,103460.31
2023-02-11T15:34:12.117Z,103458.94
2023-02-11T15:36:38.627Z,103462.84
2023-02-11T15:39:17.928Z,103468.75
2023-02-11T15:41:44.555Z,103463.81
2023-02-11T15:44:28.472Z,103475.69
2023-02-11T15:46:55.160Z,103470.13
2023-02-11T15:49:23.203Z,103465.97
2023-02-11T15:51:50.655Z,103477.06
2023-02-11T15:54:24.101Z,103473.91
2023-02-11T15:56:59.083Z,103469.44
2023-02-11T15:59:32.341Z,103464.13
2023-02-11T16:02:08.171Z,103460.09
2023-02-11T16:04:36.028Z,103463.97
2023-02-11T16:07:02.983Z,103463.59
2023-02-11T16:09:36.575Z,103463.25
2023-02-11T16:12:27.124Z,103462.59
2023-02-11T16:14:53.639Z,103461.34
2023-02-11T16:17:28.916Z,103469.22
2023-02-11T16:19:55.496Z,103478.47
2023-02-11T16:22:28.789Z,103479.41
2023-02-11T16:24:58.731Z,103479.53
2023-02-11T16:27:34.043Z,103478.91
2023-02-11T16:30:04.541Z,103480.16
2023-02-11T16:32:33.432Z,103487.94
2023-02-11T16:35:01.431Z,103486.94
2023-02-11T16:37:32.420Z,103490.41
2023-02-11T16:39:59.088Z,103494.25
2023-02-11T16:42:25.716Z,103492.50
2023-02-11T16:44:52.353Z,103496.78
2023-02-11T16:47:27.556Z,103496.84
2023-02-11T16:49:58.392Z,103497.94
2023-02-11T16:52:25.645Z,103503.53
2023-02-11T16:54:55.361Z,103496.75
2023-02-11T16:57:24.802Z,103498.47
2023-02-11T16:59:52.336Z,103499.38
2023-02-11T17:02:25.275Z,103500.31
2023-02-11T17:04:58.378Z,103506.91
2023-02-11T17:07:25.229Z,103506.50
2023-02-11T17:09:52.186Z,103512.66
2023-02-11T17:12:19.703Z,103509.38
2023-02-11T17:14:46.256Z,103514.78
2023-02-11T17:17:13.618Z,103508.88
2023-02-11T17:19:40.234Z,103522.84
2023-02-11T17:22:08.609Z,103525.72
2023-02-11T17:24:35.075Z,103527.66
2023-02-11T17:27:01.539Z,103532.97
2023-02-11T17:29:28.073Z,103540.88
2023-02-11T17:31:54.727Z,103542.78
2023-02-11T17:34:22.702Z,103543.78
2023-02-11T17:36:49.600Z,103552.63
2023-02-11T17:39:16.496Z,103546.56
2023-02-11T17:41:42.906Z,103551.81
2023-02-11T17:44:12.183Z,103557.13
2023-02-11T17:46:38.505Z,103554.72
2023-02-11T17:49:05.325Z,103554.00
2023-02-11T17:51:34.944Z,103554.97
2023-02-11T17:54:14.274Z,103544.66
2023-02-11T17:56:41.820Z,103551.84
2023-02-11T17:59:09.716Z,103547.75
2023-02-11T18:01:38.651Z,103551.66
2023-02-11T18:04:05.934Z,103563.47
2023-02-11T18:06:33.937Z,103564.63
2023-02-11T18:09:02.487Z,103567.41
2023-02-11T18:11:30.921Z,103574.56
2023-02-11T18:14:02.294Z,103571.91
2023-02-11T18:16:30.330Z,103581.63
2023-02-11T18:18:58.892Z,103577.56
2023-02-11T18:21:25.824Z,103578.53
2023-02-11T18:23:52.298Z,103575.97
2023-02-11T18:26:22.157Z,103577.75
2023-02-11T18:28:48.620Z,103585.59
2023-02-11T18:31:15.179Z,103585.66
2023-02-11T18:33:42.636Z,103583.88
2023-02-11T18:36:12.248Z,103589.97
2023-02-11T18:38:39.527Z,103596.38
2023-02-11T18:41:07.197Z,103598.13
2023-02-11T18:43:34.392Z,103604.16
2023-02-11T18:46:02.287Z,103606.47
2023-02-11T18:48:29.157Z,103601.97
2023-02-11T18:50:55.948Z,103607.19
2023-02-11T18:53:23.437Z,103606.31
2023-02-11T18:55:50.677Z,103604.28
2023-02-11T18:58:17.277Z,103612.13
2023-02-11T19:00:46.780Z,103610.13
2023-02-11T19:03:13.638Z,103617.16
2023-02-11T19:05:44.758Z,103620.59
2023-02-11T19:08:11.451Z,103622.47
2023-02-11T19:10:42.962Z,103620.59
2023-02-11T19:13:10.380Z,103621.34
2023-02-11T19:15:44.616Z,103627.34
2023-02-11T19:18:15.310Z,103628.25
2023-02-11T19:20:43.313Z,103633.41
2023-02-11T19:23:10.898Z,103631.75
2023-02-11T19:25:38.020Z,103633.38
2023-02-11T19:28:04.692Z,103642.16
2023-02-11T19:30:31.259Z,103638.66
2023-02-11T19:32:57.797Z,103642.94
2023-02-11T19:35:25.551Z,103643.72
2023-02-11T19:37:52.281Z,103649.78
2023-02-11T19:40:21.154Z,103652.25
2023-02-11T19:42:47.615Z,103655.88
2023-02-11T19:45:14.030Z,103657.63
2023-02-11T19:47:40.582Z,103657.50
2023-02-11T19:50:07.769Z,103660.88
2023-02-11T19:52:34.590Z,103660.09
2023-02-11T19:55:02.454Z,103656.44
2023-02-11T19:57:28.832Z,103659.03
2023-02-11T19:59:56.895Z,103655.53
2023-02-11T20:02:23.431Z,103661.53
2023-02-11T20:04:49.812Z,103666.78
2023-02-11T20:07:16.246Z,103671.09
2023-02-11T20:09:42.738Z,103668.34
2023-02-11T20:12:09.759Z,103682.34
2023-02-11T20:14:36.292Z,103687.56
2023-02-11T20:17:02.719Z,103683.47
2023-02-11T20:19:30.585Z,103690.56
2023-02-11T20:21:57.131Z,103686.06
2023-02-11T20:24:24.707Z,103688.59
2023-02-11T20:26:55.189Z,103688.69
2023-02-11T20:29:22.890Z,103681.69
2023-02-11T20:31:49.997Z,103687.72
2023-02-11T20:34:19.556Z,103684.31
2023-02-11T20:36:51.966Z,103694.81
2023-02-11T20:39:21.606Z,103690.44
2023-02-11T20:41:48.365Z,103693.94
2023-02-11T20:44:15.300Z,103689.53
2023-02-11T20:46:47.930Z,103690.19
2023-02-11T20:49:18.695Z,103697.44
2023-02-11T20:51:45.158Z,103695.66
2023-02-11T20:54:13.949Z,103696.47
2023-02-11T20:56:40.417Z,103695.75
2023-02-11T20:59:06.836Z,103707.06
2023-02-11T21:01:40.774Z,103713.03
2023-02-11T21:04:12.865Z,103721.78
2023-02-11T21:06:45.150Z,103719.09
2023-02-11T21:09:14.776Z,103718.13
2023-02-11T21:11:42.161Z,103720.69
2023-02-11T21:14:10.228Z,103718.13
2023-02-11T21:16:37.078Z,103724.19
2023-02-11T21:19:03.503Z,103731.97
2023-02-11T21:21:30.374Z,103723.25
2023-02-11T21:23:58.270Z,103731.94
2023-02-11T21:26:25.352Z,103728.47
2023-02-11T21:28:52.256Z,103735.53
2023-02-11T21:31:25.972Z,103732.88
2023-02-11T21:33:55.149Z,103733.81
2023-02-11T21:36:22.862Z,103741.66
2023-02-11T21:38:49.988Z,103727.94
2023-02-11T21:41:17.156Z,103735.69
2023-02-11T21:43:43.561Z,103737.53
2023-02-11T21:46:13.139Z,103737.47
2023-02-11T21:48:41.374Z,103743.53
2023-02-11T21:51:12.640Z,103747.94
2023-02-11T21:53:39.064Z,103746.31
2023-02-11T21:56:14.122Z,103751.47
2023-02-11T21:58:40.682Z,103749.75
2023-02-11T22:01:15.647Z,103752.31
2023-02-11T22:03:42.479Z,103756.09
2023-02-11T22:06:11.733Z,103744.66
2023-02-11T22:08:38.453Z,103745.59
2023-02-11T22:11:07.986Z,103753.41
2023-02-11T22:13:35.003Z,103744.72
2023-02-11T22:16:03.622Z,103750.69
2023-02-11T22:18:30.359Z,103747.19
2023-02-11T22:21:02.038Z,103745.72
2023-02-11T22:23:29.308Z,103744.00
2023-02-11T22:25:56.377Z,103752.84
2023-02-11T22:28:23.175Z,103750.28
2023-02-11T22:30:54.646Z,103754.53
2023-02-11T22:33:21.768Z,103759.00
2023-02-11T22:35:48.173Z,103759.00
2023-02-11T22:38:14.685Z,103762.44
2023-02-11T22:40:44.248Z,103763.28
2023-02-11T22:43:10.585Z,103763.34
2023-02-11T22:45:37.061Z,103759.84
2023-02-11T22:48:03.680Z,103766.03
2023-02-11T22:50:30.501Z,103768.63
2023-02-11T22:52:57.121Z,103779.09
2023-02-11T22:55:23.513Z,103775.44
2023-02-11T22:57:49.850Z,103770.09
2023-02-11T23:00:23.395Z,103765.66
2023-02-11T23:02:50.572Z,103769.13
2023-02-11T23:05:17.022Z,103766.66
2023-02-11T23:07:50.399Z,103763.16
2023-02-11T23:10:16.873Z,103764.03
2023-02-11T23:12:43.315Z,103763.34
2023-02-11T23:15:09.924Z,103760.63
2023-02-11T23:17:36.406Z,103765.06
2023-02-11T23:20:02.985Z,103763.34
2023-02-11T23:22:29.493Z,103764.38
2023-02-11T23:24:55.955Z,103757.22
2023-02-11T23:27:22.310Z,103769.31
2023-02-11T23:29:48.671Z,103768.34
2023-02-11T23:32:15.122Z,103767.50
2023-02-11T23:34:41.557Z,103764.88
2023-02-11T23:37:08.014Z,103765.78
2023-02-11T23:39:34.484Z,103780.56
2023-02-11T23:42:00.866Z,103775.44
2023-02-11T23:44:27.481Z,103782.41
2023-02-11T23:46:53.917Z,103777.16
2023-02-11T23:49:20.363Z,103773.56
2023-02-11T23:51:46.788Z,103771.78
2023-02-11T23:54:14.527Z,103776.13
2023-02-11T23:56:42.544Z,103773.50
2023-02-11T23:59:09.468Z,103777.03
